createdAt,value
2023-01-07T00:00:40.926Z,42.55
2023-01-07T00:03:26.286Z,44.78
2023-01-07T00:06:15.285Z,45.33
2023-01-07T00:09:02.576Z,39.25
2023-01-07T00:11:48.995Z,42.65
2023-01-07T00:14:34.922Z,40.65
2023-01-07T00:17:21.003Z,40.35
2023-01-07T00:20:06.868Z,46.80
2023-01-07T00:22:52.579Z,39.22
2023-01-07T00:25:38.199Z,43.97
2023-01-07T00:28:23.730Z,39.50
2023-01-07T00:31:17.545Z,40.45
2023-01-07T00:34:03.921Z,40.88
2023-01-07T00:36:49.995Z,40.97
2023-01-07T00:39:35.846Z,38.25
2023-01-07T00:42:40.498Z,39.65
2023-01-07T00:45:26.151Z,42.10
2023-01-07T00:48:12.294Z,40.70
2023-01-07T00:50:57.973Z,41.72
2023-01-07T00:53:44.493Z,40.42
2023-01-07T00:56:30.336Z,38.17
2023-01-07T00:59:15.975Z,37.92
2023-01-07T01:02:03.318Z,37.72
2023-01-07T01:04:48.763Z,39.05
2023-01-07T01:07:35.769Z,44.25
2023-01-07T01:10:21.863Z,40.67
2023-01-07T01:13:07.931Z,36.92
2023-01-07T01:15:53.987Z,35.20
2023-01-07T01:18:39.870Z,37.13
2023-01-07T01:21:25.701Z,36.22
2023-01-07T01:24:11.486Z,40.20
2023-01-07T01:26:57.372Z,41.40
2023-01-07T01:29:43.076Z,34.58
2023-01-07T01:32:30.464Z,35.63
2023-01-07T01:35:17.122Z,32.17
2023-01-07T01:38:02.936Z,31.33
2023-01-07T01:40:50.885Z,30.77
2023-01-07T01:43:40.175Z,34.63
2023-01-07T01:46:43.419Z,39.55
2023-01-07T01:49:38.796Z,41.03
2023-01-07T01:52:31.193Z,38.78
2023-01-07T01:55:20.682Z,40.92
2023-01-07T01:58:12.459Z,37.72
2023-01-07T02:00:58.457Z,37.13
2023-01-07T02:03:45.531Z,33.55
2023-01-07T02:06:40.147Z,34.33
2023-01-07T02:09:26.231Z,34.80
2023-01-07T02:12:18.665Z,35.95
2023-01-07T02:15:12.842Z,42.40
2023-01-07T02:18:01.702Z,42.58
2023-01-07T02:21:25.724Z,42.20
2023-01-07T02:27:16.577Z,43.53
2023-01-07T02:30:51.888Z,40.25
2023-01-07T02:36:59.009Z,38.58
2023-01-07T02:39:45.603Z,39.65
2023-01-07T02:42:56.760Z,39.95
2023-01-07T02:46:00.856Z,45.22
2023-01-07T02:48:47.179Z,40.03
2023-01-07T02:51:40.863Z,38.40
2023-01-07T02:54:28.994Z,42.78
2023-01-07T02:57:27.744Z,42.03
2023-01-07T03:00:22.585Z,44.97
2023-01-07T03:03:29.560Z,42.67
2023-01-07T03:06:37.006Z,43.72
2023-01-07T03:09:33.671Z,37.30
2023-01-07T03:12:46.523Z,35.63
2023-01-07T03:15:50.304Z,41.83
2023-01-07T03:18:41.746Z,42.17
2023-01-07T03:21:31.388Z,41.90
2023-01-07T03:24:20.978Z,37.95
2023-01-07T03:27:08.382Z,37.22
2023-01-07T03:29:56.019Z,41.72
2023-01-07T03:32:43.224Z,44.80
2023-01-07T03:35:31.991Z,41.53
2023-01-07T03:38:20.607Z,41.65
2023-01-07T03:41:06.334Z,43.03
2023-01-07T03:43:52.278Z,41.05
2023-01-07T03:46:39.066Z,43.13
2023-01-07T03:49:25.668Z,45.55
2023-01-07T03:52:11.991Z,44.00
2023-01-07T03:54:58.116Z,43.97
2023-01-07T03:57:43.717Z,53.55
2023-01-07T04:00:29.374Z,51.95
2023-01-07T04:03:26.982Z,44.10
2023-01-07T04:06:12.615Z,45.60
2023-01-07T04:08:58.467Z,51.58
2023-01-07T04:11:45.495Z,54.35
2023-01-07T04:14:32.015Z,49.75
2023-01-07T04:17:18.609Z,50.70
2023-01-07T04:20:07.680Z,46.40
2023-01-07T04:22:54.690Z,50.85
2023-01-07T04:25:41.211Z,46.72
2023-01-07T04:28:28.745Z,51.60
2023-01-07T04:31:14.841Z,52.92
2023-01-07T04:34:00.917Z,46.33
2023-01-07T04:36:46.459Z,45.85
2023-01-07T04:39:32.060Z,48.53
2023-01-07T04:42:17.611Z,43.92
2023-01-07T04:45:03.505Z,47.33
2023-01-07T04:47:49.222Z,40.50
2023-01-07T04:50:35.136Z,44.05
2023-01-07T04:53:21.054Z,55.17
2023-01-07T04:56:08.175Z,47.45
2023-01-07T04:58:54.627Z,47.35
2023-01-07T05:01:41.697Z,40.92
2023-01-07T05:04:27.576Z,38.42
2023-01-07T05:07:14.088Z,45.58
2023-01-07T05:10:00.228Z,40.80
2023-01-07T05:12:47.785Z,50.72
2023-01-07T05:15:36.124Z,52.13
2023-01-07T05:18:21.732Z,39.33
2023-01-07T05:21:07.748Z,44.63
2023-01-07T05:23:54.455Z,42.35
2023-01-07T05:26:41.225Z,47.38
2023-01-07T05:29:27.712Z,44.30
2023-01-07T05:32:13.600Z,42.88
2023-01-07T05:35:00.311Z,45.28
2023-01-07T05:37:46.281Z,46.20
2023-01-07T05:40:32.670Z,41.30
2023-01-07T05:43:18.793Z,42.53
2023-01-07T05:46:04.682Z,44.72
2023-01-07T05:48:50.281Z,44.55
2023-01-07T05:51:36.301Z,45.40
2023-01-07T05:54:21.767Z,47.92
2023-01-07T05:57:07.468Z,41.50
2023-01-07T05:59:53.384Z,43.72
2023-01-07T06:02:39.012Z,35.88
2023-01-07T06:05:25.012Z,42.97
2023-01-07T06:08:10.760Z,40.15
2023-01-07T06:10:56.421Z,39.38
2023-01-07T06:13:42.456Z,44.53
2023-01-07T06:16:28.104Z,42.92
2023-01-07T06:19:13.813Z,40.75
2023-01-07T06:21:59.614Z,43.75
2023-01-07T06:24:45.871Z,36.47
2023-01-07T06:27:31.849Z,38.30
2023-01-07T06:30:17.864Z,40.03
2023-01-07T06:33:08.153Z,37.65
2023-01-07T06:35:53.991Z,39.53
2023-01-07T06:38:41.567Z,42.28
2023-01-07T06:41:28.207Z,43.60
2023-01-07T06:44:14.939Z,37.88
2023-01-07T06:47:00.872Z,41.13
2023-01-07T06:49:47.413Z,42.10
2023-01-07T06:52:33.392Z,36.20
2023-01-07T06:55:18.990Z,38.00
2023-01-07T06:58:04.684Z,44.50
2023-01-07T07:00:50.290Z,42.88
2023-01-07T07:03:36.418Z,35.80
2023-01-07T07:06:22.593Z,46.88
2023-01-07T07:09:08.142Z,43.78
2023-01-07T07:11:55.453Z,40.45
2023-01-07T07:14:41.348Z,44.95
2023-01-07T07:17:26.954Z,42.20
2023-01-07T07:20:13.004Z,41.15
2023-01-07T07:22:58.412Z,36.35
2023-01-07T07:25:44.398Z,35.47
2023-01-07T07:28:30.010Z,38.10
2023-01-07T07:31:15.548Z,36.97
2023-01-07T07:34:01.622Z,37.17
2023-01-07T07:36:47.306Z,38.13
2023-01-07T07:39:33.741Z,41.50
2023-01-07T07:42:19.639Z,41.22
2023-01-07T07:45:07.960Z,42.20
2023-01-07T07:47:53.540Z,41.28
2023-01-07T07:50:39.467Z,40.90
2023-01-07T07:53:25.632Z,44.17
2023-01-07T07:56:11.215Z,43.75
2023-01-07T07:58:56.803Z,38.97
2023-01-07T08:01:42.270Z,40.05
2023-01-07T08:04:28.968Z,39.58
2023-01-07T08:07:14.491Z,40.78
2023-01-07T08:10:18.548Z,34.10
2023-01-07T08:13:04.918Z,40.03
2023-01-07T08:15:50.767Z,41.88
2023-01-07T08:18:36.581Z,37.78
2023-01-07T08:21:22.252Z,46.28
2023-01-07T08:24:08.327Z,44.22
2023-01-07T08:26:55.686Z,43.78
2023-01-07T08:29:41.026Z,43.70
2023-01-07T08:32:27.000Z,45.28
2023-01-07T08:35:13.098Z,40.15
2023-01-07T08:38:07.819Z,51.88
2023-01-07T08:40:54.146Z,42.35
2023-01-07T08:43:39.786Z,42.60
2023-01-07T08:46:25.485Z,43.20
2023-01-07T08:49:11.639Z,46.15
2023-01-07T08:51:57.695Z,42.17
2023-01-07T08:54:43.155Z,40.22
2023-01-07T08:57:28.615Z,43.08
2023-01-07T09:00:16.164Z,40.65
2023-01-07T09:03:03.669Z,41.92
2023-01-07T09:05:49.291Z,46.10
2023-01-07T09:08:35.303Z,40.75
2023-01-07T09:11:21.095Z,45.05
2023-01-07T09:14:06.606Z,41.50
2023-01-07T09:16:52.707Z,42.53
2023-01-07T09:19:38.330Z,45.17
2023-01-07T09:22:24.485Z,43.20
2023-01-07T09:25:11.166Z,42.13
2023-01-07T09:27:56.696Z,53.72
2023-01-07T09:30:42.680Z,48.10
2023-01-07T09:33:28.499Z,56.63
2023-01-07T09:36:14.495Z,47.80
2023-01-07T09:39:00.899Z,57.00
2023-01-07T09:42:04.246Z,55.72
2023-01-07T09:45:28.419Z,63.30
2023-01-07T09:51:16.078Z,56.47
2023-01-07T09:54:04.044Z,60.03
2023-01-07T09:56:49.990Z,61.45
2023-01-07T09:59:35.661Z,56.03
2023-01-07T10:02:45.913Z,63.08
2023-01-07T10:05:44.967Z,55.17
2023-01-07T10:08:32.377Z,64.40
2023-01-07T10:11:36.820Z,58.50
2023-01-07T10:14:34.250Z,68.35
2023-01-07T10:17:42.442Z,62.90
2023-01-07T10:20:44.047Z,57.42
2023-01-07T10:23:33.974Z,58.38
2023-01-07T10:26:39.316Z,64.88
2023-01-07T10:29:45.935Z,53.38
2023-01-07T10:32:36.632Z,57.20
2023-01-07T10:35:25.039Z,58.78
2023-01-07T10:38:20.673Z,67.38
2023-01-07T10:41:14.895Z,62.38
2023-01-07T10:44:26.655Z,57.85
2023-01-07T10:47:30.743Z,57.00
2023-01-07T10:50:43.808Z,62.42
2023-01-07T10:53:53.527Z,60.47
2023-01-07T10:56:46.458Z,61.00
2023-01-07T10:59:32.490Z,65.75
2023-01-07T11:02:21.603Z,67.32
2023-01-07T11:05:07.421Z,62.63
2023-01-07T11:07:57.589Z,60.22
2023-01-07T11:10:43.143Z,61.83
2023-01-07T11:13:35.314Z,66.45
2023-01-07T11:16:26.949Z,58.75
2023-01-07T11:19:13.559Z,61.22
2023-01-07T11:21:59.300Z,65.00
2023-01-07T11:24:45.459Z,56.65
2023-01-07T11:27:34.967Z,56.72
2023-01-07T11:30:27.891Z,61.42
2023-01-07T11:34:02.651Z,59.60
2023-01-07T11:36:41.448Z,56.70
2023-01-07T11:39:29.616Z,63.22
2023-01-07T11:42:36.715Z,53.95
2023-01-07T11:45:34.853Z,52.13
2023-01-07T11:48:38.242Z,61.53
2023-01-07T11:51:24.831Z,67.85
2023-01-07T11:54:21.208Z,51.45
2023-01-07T11:57:33.079Z,50.40
2023-01-07T12:00:19.088Z,49.90
2023-01-07T12:03:13.779Z,52.33
2023-01-07T12:06:17.979Z,47.47
2023-01-07T12:09:22.640Z,48.28
2023-01-07T12:12:31.001Z,47.28
2023-01-07T12:15:27.184Z,42.90
2023-01-07T12:18:57.678Z,42.22
2023-01-07T12:21:46.664Z,38.13
2023-01-07T12:24:57.066Z,45.40
2023-01-07T12:28:07.813Z,46.05
2023-01-07T12:31:14.084Z,45.20
2023-01-07T12:34:33.922Z,46.97
2023-01-07T12:37:48.894Z,46.33
2023-01-07T12:40:52.750Z,43.95
2023-01-07T12:43:57.722Z,34.70
2023-01-07T12:47:30.932Z,41.70
2023-01-07T12:50:27.628Z,46.80
2023-01-07T12:53:48.199Z,31.65
2023-01-07T12:56:43.327Z,31.60
2023-01-07T12:59:47.163Z,31.40
2023-01-07T13:02:40.360Z,28.85
2023-01-07T13:06:11.134Z,30.07
2023-01-07T13:09:09.882Z,31.15
2023-01-07T13:12:42.344Z,31.92
2023-01-07T13:15:33.028Z,31.02
2023-01-07T13:18:21.029Z,34.60
2023-01-07T13:21:15.210Z,31.25
2023-01-07T13:24:12.996Z,31.55
2023-01-07T13:27:41.912Z,29.50
2023-01-07T13:30:44.421Z,33.20
2023-01-07T13:33:48.696Z,33.95
2023-01-07T13:37:05.457Z,37.40
2023-01-07T13:39:51.970Z,24.85
2023-01-07T13:42:54.897Z,31.38
2023-01-07T13:45:41.374Z,25.40
2023-01-07T13:48:28.409Z,27.83
2023-01-07T13:51:14.199Z,26.10
2023-01-07T13:53:59.814Z,23.85
2023-01-07T13:56:45.671Z,28.13
2023-01-07T13:59:46.705Z,28.42
2023-01-07T14:02:55.745Z,27.95
2023-01-07T14:05:41.367Z,25.85
2023-01-07T14:08:29.994Z,25.08
2023-01-07T14:11:16.076Z,23.77
2023-01-07T14:14:39.434Z,24.73
2023-01-07T14:17:39.408Z,24.30
2023-01-07T14:20:47.779Z,23.60
2023-01-07T14:24:08.108Z,25.52
2023-01-07T14:27:08.974Z,26.77
2023-01-07T14:29:59.378Z,30.45
2023-01-07T14:33:03.954Z,26.13
2023-01-07T14:35:59.928Z,24.65
2023-01-07T14:38:47.981Z,24.42
2023-01-07T14:41:34.360Z,24.98
2023-01-07T14:44:27.813Z,20.88
2023-01-07T14:47:15.336Z,26.42
2023-01-07T14:50:38.500Z,27.25
2023-01-07T14:54:05.798Z,28.50
2023-01-07T14:57:31.198Z,29.25
2023-01-07T15:00:44.187Z,27.20
2023-01-07T15:03:59.890Z,24.88
2023-01-07T15:06:46.302Z,29.35
2023-01-07T15:09:59.810Z,25.27
2023-01-07T15:13:07.334Z,28.00
2023-01-07T15:16:04.268Z,26.40
2023-01-07T15:18:53.258Z,26.38
2023-01-07T15:21:44.912Z,24.98
2023-01-07T15:24:48.724Z,21.83
2023-01-07T15:27:49.637Z,23.65
2023-01-07T15:31:00.023Z,23.40
2023-01-07T15:33:54.768Z,25.45
2023-01-07T15:36:50.019Z,31.30
2023-01-07T15:39:45.427Z,24.65
2023-01-07T15:42:32.907Z,29.60
2023-01-07T15:45:27.034Z,26.45
2023-01-07T15:48:13.244Z,26.70
2023-01-07T15:51:00.341Z,27.67
2023-01-07T15:53:55.184Z,29.05
2023-01-07T15:56:41.123Z,28.40
2023-01-07T15:59:31.343Z,25.60
2023-01-07T16:02:24.892Z,27.40
2023-01-07T16:08:01.534Z,29.00
2023-01-07T16:11:08.993Z,28.60
2023-01-07T16:13:57.161Z,34.15
2023-01-07T16:16:42.711Z,33.28
2023-01-07T16:19:28.547Z,28.98
2023-01-07T16:22:17.844Z,28.50
2023-01-07T16:25:14.560Z,26.75
2023-01-07T16:28:00.445Z,29.58
2023-01-07T16:30:47.214Z,39.30
2023-01-07T16:33:34.519Z,36.13
2023-01-07T16:36:25.499Z,33.97
2023-01-07T16:39:22.550Z,38.50
2023-01-07T16:42:24.819Z,49.42
2023-01-07T16:45:25.612Z,42.75
2023-01-07T16:48:21.441Z,35.83
2023-01-07T16:51:47.105Z,38.72
2023-01-07T16:54:40.111Z,31.35
2023-01-07T16:57:41.637Z,36.78
2023-01-07T17:00:27.882Z,40.92
2023-01-07T17:03:13.857Z,41.97
2023-01-07T17:06:07.567Z,42.67
2023-01-07T17:08:55.588Z,42.20
2023-01-07T17:11:41.630Z,42.80
2023-01-07T17:14:53.335Z,43.03
2023-01-07T17:17:38.702Z,45.33
2023-01-07T17:20:24.965Z,45.08
2023-01-07T17:23:28.634Z,47.75
2023-01-07T17:26:22.502Z,42.55
2023-01-07T17:29:13.198Z,48.53
2023-01-07T17:31:58.955Z,48.55
2023-01-07T17:34:44.601Z,48.30
2023-01-07T17:37:30.366Z,48.83
2023-01-07T17:40:16.366Z,54.80
2023-01-07T17:43:21.447Z,48.25
2023-01-07T17:46:09.095Z,47.00
2023-01-07T17:48:55.220Z,51.78
2023-01-07T17:51:43.963Z,45.88
2023-01-07T17:54:30.734Z,41.28
2023-01-07T17:57:16.408Z,49.65
2023-01-07T18:00:02.548Z,49.55
2023-01-07T18:02:58.443Z,40.55
2023-01-07T18:05:44.160Z,50.67
2023-01-07T18:08:29.746Z,46.33
2023-01-07T18:11:40.141Z,48.80
2023-01-07T18:14:25.866Z,44.95
2023-01-07T18:17:12.005Z,47.88
2023-01-07T18:20:05.487Z,46.88
2023-01-07T18:25:37.949Z,50.80
2023-01-07T18:28:23.776Z,49.08
2023-01-07T18:31:09.544Z,50.83
2023-01-07T18:33:55.073Z,48.22
2023-01-07T18:36:40.973Z,50.40
2023-01-07T18:39:28.311Z,54.33
2023-01-07T18:42:13.948Z,55.35
2023-01-07T18:44:59.230Z,54.60
2023-01-07T18:47:46.089Z,55.63
2023-01-07T18:50:32.624Z,51.38
2023-01-07T18:53:19.440Z,51.58
2023-01-07T18:56:11.280Z,53.13
2023-01-07T18:58:56.650Z,54.20
2023-01-07T19:01:43.152Z,51.67
2023-01-07T19:04:29.316Z,53.58
2023-01-07T19:07:15.811Z,55.60
2023-01-07T19:10:01.230Z,58.95
2023-01-07T19:12:47.260Z,65.50
2023-01-07T19:15:33.821Z,58.22
2023-01-07T19:18:19.240Z,57.42
2023-01-07T19:21:07.860Z,60.15
2023-01-07T19:23:54.747Z,63.80
2023-01-07T19:26:42.840Z,56.08
2023-01-07T19:29:28.901Z,57.95
2023-01-07T19:32:14.783Z,57.30
2023-01-07T19:35:01.023Z,54.88
2023-01-07T19:37:46.656Z,63.97
2023-01-07T19:40:32.313Z,57.88
2023-01-07T19:43:17.908Z,67.82
2023-01-07T19:46:03.787Z,65.03
2023-01-07T19:48:49.738Z,66.50
2023-01-07T19:51:36.875Z,66.78
2023-01-07T19:54:49.625Z,71.30
2023-01-07T19:57:35.024Z,70.35
2023-01-07T20:00:20.498Z,79.68
2023-01-07T20:03:06.087Z,74.53
2023-01-07T20:05:51.962Z,75.70
2023-01-07T20:08:40.081Z,73.22
2023-01-07T20:11:25.926Z,83.50
2023-01-07T20:14:14.903Z,89.43
2023-01-07T20:17:00.751Z,84.43
2023-01-07T20:19:46.371Z,79.93
2023-01-07T20:22:32.325Z,69.88
2023-01-07T20:25:17.845Z,79.25
2023-01-07T20:28:03.122Z,78.78
2023-01-07T20:30:49.489Z,83.15
2023-01-07T20:33:35.372Z,81.15
2023-01-07T20:36:27.553Z,81.35
2023-01-07T20:39:13.370Z,76.30
2023-01-07T20:41:59.110Z,82.43
2023-01-07T20:44:46.648Z,75.13
2023-01-07T20:47:32.317Z,80.15
2023-01-07T20:50:18.433Z,75.25
2023-01-07T20:53:04.036Z,77.55
2023-01-07T20:55:59.898Z,76.60
2023-01-07T20:58:45.728Z,70.25
2023-01-07T21:01:31.749Z,78.75
2023-01-07T21:04:17.634Z,72.15
2023-01-07T21:07:03.466Z,79.32
2023-01-07T21:09:49.376Z,81.55
2023-01-07T21:12:34.664Z,70.35
2023-01-07T21:15:20.494Z,67.85
2023-01-07T21:18:06.615Z,69.35
2023-01-07T21:20:52.678Z,72.45
2023-01-07T21:23:39.039Z,75.72
2023-01-07T21:26:25.137Z,76.15
2023-01-07T21:29:10.677Z,78.90
2023-01-07T21:31:57.399Z,69.07
2023-01-07T21:34:46.808Z,75.35
2023-01-07T21:37:33.299Z,70.00
2023-01-07T21:40:19.641Z,74.78
2023-01-07T21:43:05.812Z,63.15
2023-01-07T21:45:51.793Z,67.78
2023-01-07T21:48:39.590Z,65.50
2023-01-07T21:51:26.996Z,75.82
2023-01-07T21:54:12.817Z,68.72
2023-01-07T21:56:58.994Z,69.78
2023-01-07T21:59:45.107Z,68.85
2023-01-07T22:02:30.697Z,65.50
2023-01-07T22:05:21.807Z,69.85
2023-01-07T22:08:09.110Z,68.20
2023-01-07T22:10:54.440Z,69.63
2023-01-07T22:13:40.323Z,63.08
2023-01-07T22:16:28.179Z,72.00
2023-01-07T22:19:13.690Z,73.70
2023-01-07T22:22:01.233Z,67.53
2023-01-07T22:24:46.801Z,76.38
2023-01-07T22:27:32.513Z,73.22
2023-01-07T22:30:19.966Z,74.25
2023-01-07T22:33:05.265Z,75.05
2023-01-07T22:35:51.923Z,69.03
2023-01-07T22:38:38.379Z,69.63
2023-01-07T22:41:27.075Z,75.40
2023-01-07T22:44:20.994Z,72.05
2023-01-07T22:47:12.155Z,69.72
2023-01-07T22:50:00.090Z,66.68
2023-01-07T22:52:46.749Z,68.15
2023-01-07T22:55:33.003Z,63.28
2023-01-07T22:58:18.971Z,70.47
2023-01-07T23:01:04.807Z,67.88
2023-01-07T23:03:50.441Z,64.22
2023-01-07T23:06:36.220Z,62.75
2023-01-07T23:09:22.069Z,60.55
2023-01-07T23:12:13.335Z,75.25
2023-01-07T23:14:58.964Z,67.22
2023-01-07T23:17:44.630Z,61.60
2023-01-07T23:20:30.650Z,68.57
2023-01-07T23:23:16.310Z,71.72
2023-01-07T23:26:02.039Z,69.60
2023-01-07T23:28:48.021Z,59.30
2023-01-07T23:31:34.906Z,64.78
2023-01-07T23:34:20.931Z,65.45
2023-01-07T23:37:06.514Z,67.35
2023-01-07T23:39:52.572Z,65.80
2023-01-07T23:42:38.621Z,67.97
2023-01-07T23:45:24.380Z,65.82
2023-01-07T23:48:10.371Z,62.40
2023-01-07T23:51:03.188Z,64.20
2023-01-07T23:53:49.158Z,62.22
2023-01-07T23:56:35.564Z,58.88
2023-01-07T23:59:21.218Z,65.38
